Decoded Metar for UTDK ( in ) (IATA:) | Meteo·Mobile Aviation Weather
aviador You're here:

UTDK Decoded Metar

in
Report Time2019-07-21 16:30:00
UTC Time2019-07-21 16:53:15
Flight Rules vfr VFR
Wind030° at 10 kt
W.Decomp.*RWY 01: 9.4 kt HW 3.4 kt RCW
Visibility9999 m
Phenomena:N/A
Clouds:N/A
Expected CloudBase > 8,000 ft AGL from Temp-Dew spread
CeilingNone
Temp33°C
Dew Point13°C (30% RH)
Heat Index32.0°C
AAT30.4°C
QNH1005 hPa
Raw Report
METAR UTDK 211630Z 03005MPS 9999 NSC 33/13 Q1005 R01/09//70 RMK
QFE696/0929=

Extra information for UTDK:More info

Social comments